Wellington, Kentucky
Current Conditions -  °F | °C
As of 6:50 AM on Thursday 23 Oct 2014 (Local Time) from KSYM Reporting Station
Overcast Overcast  
Wind Chill: 45°   Ceiling: 3300
Heat Index: 45°   Visibility: 10mi
Dew Point: 41°   Wind: 0mph
Humidity: 87%   Direction: NA
Pressure: 30.26"   Gusts: NA
Location:  37.98°N, 83.47°W
Report Text: KSYM 231050Z AUTO 00000KT 10SM OVC033 07/05 A3026 RMK AO2
Loading
Personal Weather Stations






























Interactive Weather Map
Tropical Storm Tracking
New forecast layout! Learn more

10-Day Weather Forecast

Advertisements
Track Severe Weather on mobile